createdAt,value
2018-12-04T00:04:02.050Z,97239.84
2018-12-04T00:09:06.233Z,97241.98
2018-12-04T00:14:09.659Z,97245.81
2018-12-04T00:19:11.921Z,97247.04
2018-12-04T00:24:14.153Z,97248.53
2018-12-04T00:29:16.393Z,97248.77
2018-12-04T00:34:18.784Z,97243.93
2018-12-04T00:39:21.143Z,97245.59
2018-12-04T00:44:23.434Z,97238.23
2018-12-04T00:49:28.620Z,97242.09
2018-12-04T00:54:30.978Z,97238.14
2018-12-04T00:59:33.289Z,97245.59
2018-12-04T01:04:35.537Z,97258.33
2018-12-04T01:09:37.828Z,97268.48
2018-12-04T01:14:40.144Z,97278.70
2018-12-04T01:19:42.438Z,97276.06
2018-12-04T01:24:44.699Z,97285.23
2018-12-04T01:29:46.962Z,97290.01
2018-12-04T01:34:49.265Z,97294.89
2018-12-04T01:39:52.447Z,97300.17
2018-12-04T01:44:54.769Z,97304.16
2018-12-04T01:49:57.046Z,97309.41
2018-12-04T01:54:59.289Z,97313.57
2018-12-04T02:00:01.533Z,97316.09
2018-12-04T02:05:04.042Z,97329.92
2018-12-04T02:10:06.441Z,97334.36
2018-12-04T02:15:08.970Z,97341.52
2018-12-04T02:20:11.346Z,97349.81
2018-12-04T02:25:13.633Z,97353.50
2018-12-04T02:30:15.927Z,97353.36
2018-12-04T02:35:18.270Z,97360.08
2018-12-04T02:40:20.506Z,97345.90
2018-12-04T02:45:22.782Z,97356.58
2018-12-04T02:50:25.034Z,97362.70
2018-12-04T02:55:27.303Z,97363.52
2018-12-04T03:00:29.556Z,97382.33
2018-12-04T03:05:31.809Z,97385.59
2018-12-04T03:10:34.177Z,97384.20
2018-12-04T03:15:37.618Z,97401.76
2018-12-04T03:20:39.853Z,97408.91
2018-12-04T03:25:42.057Z,97439.12
2018-12-04T03:30:44.289Z,97451.59
2018-12-04T03:35:46.640Z,97445.84
2018-12-04T03:40:48.890Z,97462.30
2018-12-04T03:45:51.159Z,97494.21
2018-12-04T03:50:53.432Z,97510.13
2018-12-04T03:55:55.661Z,97509.37
2018-12-04T04:00:57.882Z,97516.39
2018-12-04T04:06:00.236Z,97544.00
2018-12-04T04:11:02.665Z,97547.05
2018-12-04T04:16:05.094Z,97572.55
2018-12-04T04:21:07.332Z,97565.48
2018-12-04T04:26:09.691Z,97588.41
2018-12-04T04:31:12.129Z,97594.77
2018-12-04T04:36:14.415Z,97609.16
2018-12-04T04:41:16.681Z,97624.88
2018-12-04T04:46:19.048Z,97636.63
2018-12-04T04:51:21.481Z,97649.04
2018-12-04T04:56:23.759Z,97669.84
2018-12-04T05:01:26.024Z,97719.66
2018-12-04T05:06:28.387Z,97701.61
2018-12-04T05:11:30.629Z,97728.08
2018-12-04T05:16:32.907Z,97748.38
2018-12-04T05:21:35.245Z,97760.45
2018-12-04T05:26:37.610Z,97784.38
2018-12-04T05:31:39.854Z,97793.39
2018-12-04T05:36:42.175Z,97803.02
2018-12-04T05:41:44.386Z,97853.76
2018-12-04T05:46:46.651Z,97830.95
2018-12-04T05:51:48.872Z,97850.38
2018-12-04T05:56:51.195Z,97875.95
2018-12-04T06:01:53.416Z,97898.62
2018-12-04T06:06:55.652Z,97904.25
2018-12-04T06:11:57.973Z,97912.73
2018-12-04T06:17:00.287Z,97913.72
2018-12-04T06:22:02.741Z,97931.50
2018-12-04T06:27:05.150Z,97941.29
2018-12-04T06:32:07.403Z,97966.98
2018-12-04T06:37:09.667Z,97974.09
2018-12-04T06:42:11.895Z,97982.06
2018-12-04T06:47:21.343Z,98002.89
2018-12-04T06:52:23.762Z,98021.52
2018-12-04T06:57:26.011Z,98043.27
2018-12-04T07:02:28.263Z,98062.70
2018-12-04T07:07:30.653Z,98077.17
2018-12-04T07:12:32.944Z,98102.84
2018-12-04T07:17:35.279Z,98119.80
2018-12-04T07:22:37.606Z,98118.36
2018-12-04T07:27:39.890Z,98138.91
2018-12-04T07:32:42.134Z,98155.11
2018-12-04T07:37:44.437Z,98161.75
2018-12-04T07:42:48.081Z,98167.47
2018-12-04T07:47:50.389Z,98176.34
2018-12-04T07:52:52.666Z,98192.13
2018-12-04T07:57:54.916Z,98217.17
2018-12-04T08:02:57.199Z,98223.80
2018-12-04T08:07:59.444Z,98239.69
2018-12-04T08:13:01.713Z,98256.20
2018-12-04T08:18:04.147Z,98274.30
2018-12-04T08:23:06.426Z,98278.58
2018-12-04T08:28:08.895Z,98298.20
2018-12-04T08:33:11.154Z,98294.89
2018-12-04T08:38:13.417Z,98304.38
2018-12-04T08:43:15.658Z,98304.10
2018-12-04T08:48:17.965Z,98332.87
2018-12-04T08:53:20.226Z,98347.58
2018-12-04T08:58:22.494Z,98358.98
2018-12-04T09:03:24.774Z,98360.61
2018-12-04T09:08:27.045Z,98370.91
2018-12-04T09:13:29.442Z,98394.98
2018-12-04T09:18:32.048Z,98405.64
2018-12-04T09:23:34.466Z,98417.73
2018-12-04T09:28:36.910Z,98415.20
2018-12-04T09:33:39.376Z,98439.66
2018-12-04T09:38:41.723Z,98452.66
2018-12-04T09:43:44.745Z,98450.28
2018-12-04T09:48:47.074Z,98450.15
2018-12-04T09:53:52.068Z,98457.77
2018-12-04T09:58:53.632Z,98462.13
2018-12-04T10:03:56.261Z,98468.62
2018-12-04T10:08:58.511Z,98465.39
2018-12-04T10:14:00.830Z,98476.36
2018-12-04T10:19:03.258Z,98474.70
2018-12-04T10:24:05.746Z,98477.63
2018-12-04T10:29:08.131Z,98486.84
2018-12-04T10:34:10.378Z,98483.86
2018-12-04T10:39:15.705Z,98495.31
2018-12-04T10:44:17.992Z,98497.66
2018-12-04T10:49:20.386Z,98508.20
2018-12-04T10:54:22.679Z,98509.94
2018-12-04T10:59:24.919Z,98521.78
2018-12-04T11:04:27.161Z,98527.70
2018-12-04T11:09:29.408Z,98535.25
2018-12-04T11:14:31.644Z,98546.31
2018-12-04T11:19:34.015Z,98557.24
2018-12-04T11:24:36.342Z,98559.23
2018-12-04T11:29:38.608Z,98561.59
2018-12-04T11:34:40.825Z,98559.11
2018-12-04T11:39:43.159Z,98573.97
2018-12-04T11:44:45.538Z,98573.34
2018-12-04T11:49:47.931Z,98591.24
2018-12-04T11:54:50.270Z,98597.66
2018-12-04T11:59:52.745Z,98632.69
2018-12-04T12:04:55.321Z,98642.02
2018-12-04T12:10:00.877Z,98639.23
2018-12-04T12:15:04.036Z,98632.89
2018-12-04T12:20:07.387Z,98641.12
2018-12-04T12:25:09.656Z,98644.70
2018-12-04T12:30:12.024Z,98641.94
2018-12-04T12:35:15.442Z,98657.45
2018-12-04T12:40:17.798Z,98665.13
2018-12-04T12:45:20.054Z,98673.69
2018-12-04T12:50:22.322Z,98692.49
2018-12-04T12:55:24.559Z,98700.98
2018-12-04T13:00:26.973Z,98704.20
2018-12-04T13:05:29.802Z,98716.05
2018-12-04T13:10:32.049Z,98722.01
2018-12-04T13:15:34.284Z,98734.16
2018-12-04T13:20:36.816Z,98740.24
2018-12-04T13:25:39.054Z,98745.63
2018-12-04T13:30:41.334Z,98758.51
2018-12-04T13:35:43.626Z,98759.41
2018-12-04T13:40:45.901Z,98787.55
2018-12-04T13:45:48.307Z,98778.56
2018-12-04T13:50:50.631Z,98782.80
2018-12-04T13:55:52.872Z,98796.55
2018-12-04T14:00:55.139Z,98799.52
2018-12-04T14:05:57.477Z,98805.15
2018-12-04T14:10:59.853Z,98809.47
2018-12-04T14:16:02.082Z,98823.27
2018-12-04T14:21:04.478Z,98840.16
2018-12-04T14:26:06.694Z,98850.00
2018-12-04T14:31:08.913Z,98856.39
2018-12-04T14:36:12.750Z,98878.72
2018-12-04T14:41:15.336Z,98871.49
2018-12-04T14:46:17.684Z,98893.02
2018-12-04T14:51:19.915Z,98886.94
2018-12-04T14:56:23.340Z,98897.60
2018-12-04T15:01:25.536Z,98902.20
2018-12-04T15:06:27.934Z,98921.34
2018-12-04T15:11:30.334Z,98924.96
2018-12-04T15:16:32.570Z,98933.44
2018-12-04T15:21:34.961Z,98948.59
2018-12-04T15:26:37.375Z,98954.19
2018-12-04T15:31:39.826Z,98966.55
2018-12-04T15:36:42.105Z,98974.50
2018-12-04T15:41:46.233Z,98991.31
2018-12-04T15:46:48.806Z,99005.63
2018-12-04T15:51:51.089Z,99011.38
2018-12-04T15:56:53.562Z,99026.42
2018-12-04T16:01:56.929Z,99034.22
2018-12-04T16:06:59.495Z,99049.77
2018-12-04T16:12:01.929Z,99053.98
2018-12-04T16:17:04.328Z,99064.30
2018-12-04T16:22:06.977Z,99078.37
2018-12-04T16:27:09.419Z,99083.33
2018-12-04T16:32:12.709Z,99078.67
2018-12-04T16:37:16.098Z,99082.61
2018-12-04T16:42:18.374Z,99090.16
2018-12-04T16:47:21.505Z,99105.09
2018-12-04T16:52:23.972Z,99111.58
2018-12-04T16:57:26.367Z,99128.53
2018-12-04T17:02:28.923Z,99140.79
2018-12-04T17:07:31.459Z,99146.80
2018-12-04T17:12:33.729Z,99151.66
2018-12-04T17:17:36.032Z,99165.36
2018-12-04T17:22:38.653Z,99171.39
2018-12-04T17:27:40.924Z,99171.13
2018-12-04T17:32:43.613Z,99180.22
2018-12-04T17:37:45.909Z,99194.88
2018-12-04T17:42:49.975Z,99198.33
2018-12-04T17:47:52.261Z,99197.11
2018-12-04T17:52:55.115Z,99197.46
2018-12-04T17:57:58.597Z,99206.93
2018-12-04T18:03:01.471Z,99213.82
2018-12-04T18:08:04.286Z,99224.28
2018-12-04T18:13:06.651Z,99223.92
2018-12-04T18:18:11.234Z,99230.13
2018-12-04T18:23:14.573Z,99227.44
2018-12-04T18:28:16.954Z,99243.59
2018-12-04T18:33:19.938Z,99247.80
2018-12-04T18:38:22.312Z,99253.44
2018-12-04T18:43:25.495Z,99255.44
2018-12-04T18:48:27.821Z,99256.92
2018-12-04T18:53:31.438Z,99255.67
2018-12-04T18:58:34.399Z,99258.24
2018-12-04T19:03:36.661Z,99266.42
2018-12-04T19:08:46.947Z,99276.53
2018-12-04T19:13:49.332Z,99277.05
2018-12-04T19:18:51.734Z,99289.58
2018-12-04T19:23:54.779Z,99290.81
2018-12-04T19:28:58.498Z,99300.34
2018-12-04T19:34:00.832Z,99312.78
2018-12-04T19:39:06.951Z,99315.39
2018-12-04T19:44:10.339Z,99314.13
2018-12-04T19:49:12.852Z,99315.81
2018-12-04T19:54:15.276Z,99329.02
2018-12-04T19:59:17.683Z,99332.37
2018-12-04T20:04:20.139Z,99341.03
2018-12-04T20:09:22.476Z,99349.92
2018-12-04T20:14:24.958Z,99349.95
2018-12-04T20:19:27.263Z,99365.97
2018-12-04T20:24:29.782Z,99375.80
2018-12-04T20:29:32.295Z,99393.14
2018-12-04T20:34:34.527Z,99406.87
2018-12-04T20:39:36.826Z,99413.75
2018-12-04T20:44:39.356Z,99421.22
2018-12-04T20:49:41.596Z,99421.20
2018-12-04T20:54:43.970Z,99424.95
2018-12-04T20:59:46.648Z,99436.53
2018-12-04T21:04:49.012Z,99443.55
2018-12-04T21:09:51.630Z,99441.22
2018-12-04T21:14:54.103Z,99448.00
2018-12-04T21:19:56.324Z,99452.77
2018-12-04T21:24:58.585Z,99453.11
2018-12-04T21:30:06.690Z,99457.73
2018-12-04T21:35:14.654Z,99466.03
2018-12-04T21:40:22.853Z,99469.47
2018-12-04T21:45:31.549Z,99468.64
2018-12-04T21:50:33.931Z,99472.94
2018-12-04T21:55:36.171Z,99482.39
2018-12-04T22:00:38.415Z,99488.32
2018-12-04T22:05:41.299Z,99496.13
2018-12-04T22:10:43.585Z,99506.34
2018-12-04T22:15:45.983Z,99515.45
2018-12-04T22:20:48.258Z,99511.99
2018-12-04T22:25:50.723Z,99514.48
2018-12-04T22:30:53.002Z,99514.70
2018-12-04T22:35:55.594Z,99527.26
2018-12-04T22:40:57.861Z,99527.84
2018-12-04T22:46:00.123Z,99533.86
2018-12-04T22:51:02.445Z,99535.53
2018-12-04T22:56:04.890Z,99524.02
2018-12-04T23:01:07.391Z,99516.67
2018-12-04T23:06:09.628Z,99522.38
2018-12-04T23:11:11.900Z,99516.55
2018-12-04T23:16:14.140Z,99519.41
2018-12-04T23:21:16.468Z,99532.20
2018-12-04T23:26:18.906Z,99528.05
2018-12-04T23:31:23.965Z,99534.09
2018-12-04T23:36:26.252Z,99530.40
2018-12-04T23:41:28.500Z,99526.96
2018-12-04T23:46:30.762Z,99528.97
2018-12-04T23:51:33.044Z,99530.52
2018-12-04T23:56:35.321Z,99536.98
